sensor_id;sensor_type;location;lat;lon;timestamp;P1;durP1;ratioP1;P2;durP2;ratioP2
54368;SDS011;40266;52.434;17.056;2023-05-07T00:01:46;14.30;;;7.20;;
54368;SDS011;40266;52.434;17.056;2023-05-07T00:04:29;12.40;;;7.40;;
54368;SDS011;40266;52.434;17.056;2023-05-07T00:07:18;14.00;;;7.80;;
54368;SDS011;40266;52.434;17.056;2023-05-07T00:10:01;15.00;;;7.40;;
54368;SDS011;40266;52.434;17.056;2023-05-07T00:12:45;15.10;;;7.30;;
54368;SDS011;40266;52.434;17.056;2023-05-07T00:15:28;17.30;;;8.50;;
54368;SDS011;40266;52.434;17.056;2023-05-07T00:18:11;13.90;;;7.90;;
54368;SDS011;40266;52.434;17.056;2023-05-07T00:20:54;14.90;;;8.00;;
54368;SDS011;40266;52.434;17.056;2023-05-07T00:23:38;17.30;;;8.70;;
54368;SDS011;40266;52.434;17.056;2023-05-07T00:26:21;17.50;;;9.60;;
54368;SDS011;40266;52.434;17.056;2023-05-07T00:29:05;21.60;;;11.00;;
54368;SDS011;40266;52.434;17.056;2023-05-07T00:31:48;18.90;;;10.00;;
54368;SDS011;40266;52.434;17.056;2023-05-07T00:34:32;18.10;;;10.10;;
54368;SDS011;40266;52.434;17.056;2023-05-07T00:37:15;19.90;;;10.80;;
54368;SDS011;40266;52.434;17.056;2023-05-07T00:39:58;20.30;;;10.40;;
54368;SDS011;40266;52.434;17.056;2023-05-07T00:42:41;18.60;;;10.30;;
54368;SDS011;40266;52.434;17.056;2023-05-07T00:45:30;20.70;;;9.90;;
54368;SDS011;40266;52.434;17.056;2023-05-07T00:48:13;16.60;;;9.50;;
54368;SDS011;40266;52.434;17.056;2023-05-07T00:50:56;19.10;;;10.10;;
54368;SDS011;40266;52.434;17.056;2023-05-07T00:53:40;15.40;;;9.60;;
54368;SDS011;40266;52.434;17.056;2023-05-07T00:56:23;18.40;;;10.00;;
54368;SDS011;40266;52.434;17.056;2023-05-07T00:59:06;18.60;;;10.30;;
54368;SDS011;40266;52.434;17.056;2023-05-07T01:01:49;19.20;;;10.30;;
54368;SDS011;40266;52.434;17.056;2023-05-07T01:04:33;17.30;;;9.50;;
54368;SDS011;40266;52.434;17.056;2023-05-07T01:07:16;19.50;;;10.40;;
54368;SDS011;40266;52.434;17.056;2023-05-07T01:10:00;17.60;;;9.50;;
54368;SDS011;40266;52.434;17.056;2023-05-07T01:12:44;21.50;;;10.20;;
54368;SDS011;40266;52.434;17.056;2023-05-07T01:15:30;18.00;;;10.00;;
54368;SDS011;40266;52.434;17.056;2023-05-07T01:18:13;17.80;;;10.00;;
54368;SDS011;40266;52.434;17.056;2023-05-07T01:20:58;19.80;;;10.00;;
54368;SDS011;40266;52.434;17.056;2023-05-07T01:23:43;19.90;;;10.10;;
54368;SDS011;40266;52.434;17.056;2023-05-07T01:26:27;20.50;;;11.30;;
54368;SDS011;40266;52.434;17.056;2023-05-07T01:29:10;20.40;;;10.00;;
54368;SDS011;40266;52.434;17.056;2023-05-07T01:31:55;18.00;;;10.60;;
54368;SDS011;40266;52.434;17.056;2023-05-07T01:34:41;21.20;;;9.40;;
54368;SDS011;40266;52.434;17.056;2023-05-07T01:37:26;16.60;;;9.60;;
54368;SDS011;40266;52.434;17.056;2023-05-07T01:40:10;16.30;;;9.50;;
54368;SDS011;40266;52.434;17.056;2023-05-07T01:42:54;17.20;;;9.10;;
54368;SDS011;40266;52.434;17.056;2023-05-07T01:45:38;18.40;;;9.30;;
54368;SDS011;40266;52.434;17.056;2023-05-07T01:48:21;17.80;;;9.40;;
54368;SDS011;40266;52.434;17.056;2023-05-07T01:51:07;20.70;;;9.10;;
54368;SDS011;40266;52.434;17.056;2023-05-07T01:53:51;18.70;;;9.20;;
54368;SDS011;40266;52.434;17.056;2023-05-07T01:56:36;17.50;;;9.50;;
54368;SDS011;40266;52.434;17.056;2023-05-07T01:59:19;19.60;;;9.20;;
54368;SDS011;40266;52.434;17.056;2023-05-07T02:02:02;18.80;;;10.70;;
54368;SDS011;40266;52.434;17.056;2023-05-07T02:04:46;17.80;;;9.50;;
54368;SDS011;40266;52.434;17.056;2023-05-07T02:07:30;21.40;;;10.40;;
54368;SDS011;40266;52.434;17.056;2023-05-07T02:10:13;22.20;;;10.70;;
54368;SDS011;40266;52.434;17.056;2023-05-07T02:12:57;19.60;;;10.70;;
54368;SDS011;40266;52.434;17.056;2023-05-07T02:15:40;22.80;;;11.80;;
54368;SDS011;40266;52.434;17.056;2023-05-07T02:18:23;19.50;;;10.70;;
54368;SDS011;40266;52.434;17.056;2023-05-07T02:21:06;24.10;;;11.90;;
54368;SDS011;40266;52.434;17.056;2023-05-07T02:23:49;19.10;;;11.00;;
54368;SDS011;40266;52.434;17.056;2023-05-07T02:26:33;23.20;;;11.20;;
54368;SDS011;40266;52.434;17.056;2023-05-07T02:29:19;19.80;;;11.00;;
54368;SDS011;40266;52.434;17.056;2023-05-07T02:32:08;20.20;;;10.80;;
54368;SDS011;40266;52.434;17.056;2023-05-07T02:34:52;20.70;;;11.20;;
54368;SDS011;40266;52.434;17.056;2023-05-07T02:37:36;21.60;;;11.20;;
54368;SDS011;40266;52.434;17.056;2023-05-07T02:40:20;25.10;;;11.60;;
54368;SDS011;40266;52.434;17.056;2023-05-07T02:43:03;23.10;;;10.30;;
54368;SDS011;40266;52.434;17.056;2023-05-07T02:45:46;18.90;;;9.80;;
54368;SDS011;40266;52.434;17.056;2023-05-07T02:48:29;21.70;;;11.30;;
54368;SDS011;40266;52.434;17.056;2023-05-07T02:51:12;23.30;;;10.70;;
54368;SDS011;40266;52.434;17.056;2023-05-07T02:53:56;20.40;;;11.10;;
54368;SDS011;40266;52.434;17.056;2023-05-07T02:56:40;18.90;;;10.40;;
54368;SDS011;40266;52.434;17.056;2023-05-07T02:59:23;19.10;;;10.80;;
54368;SDS011;40266;52.434;17.056;2023-05-07T03:02:06;16.70;;;9.30;;
54368;SDS011;40266;52.434;17.056;2023-05-07T03:04:49;18.90;;;9.70;;
54368;SDS011;40266;52.434;17.056;2023-05-07T03:07:32;19.30;;;10.20;;
54368;SDS011;40266;52.434;17.056;2023-05-07T03:10:16;21.60;;;11.00;;
54368;SDS011;40266;52.434;17.056;2023-05-07T03:12:59;18.90;;;10.30;;
54368;SDS011;40266;52.434;17.056;2023-05-07T03:15:44;22.10;;;10.80;;
54368;SDS011;40266;52.434;17.056;2023-05-07T03:18:28;19.00;;;10.10;;
54368;SDS011;40266;52.434;17.056;2023-05-07T03:21:11;18.60;;;9.50;;
54368;SDS011;40266;52.434;17.056;2023-05-07T03:23:54;19.80;;;10.60;;
54368;SDS011;40266;52.434;17.056;2023-05-07T03:26:37;20.80;;;10.40;;
54368;SDS011;40266;52.434;17.056;2023-05-07T03:29:20;20.50;;;9.80;;
54368;SDS011;40266;52.434;17.056;2023-05-07T03:32:03;20.20;;;9.90;;
54368;SDS011;40266;52.434;17.056;2023-05-07T03:34:48;19.50;;;9.60;;
54368;SDS011;40266;52.434;17.056;2023-05-07T03:37:31;17.60;;;9.80;;
54368;SDS011;40266;52.434;17.056;2023-05-07T03:40:15;19.90;;;9.50;;
54368;SDS011;40266;52.434;17.056;2023-05-07T03:43:01;22.00;;;9.90;;
54368;SDS011;40266;52.434;17.056;2023-05-07T03:45:45;16.40;;;9.40;;
54368;SDS011;40266;52.434;17.056;2023-05-07T03:48:31;16.10;;;8.70;;
54368;SDS011;40266;52.434;17.056;2023-05-07T03:51:14;18.80;;;9.50;;
54368;SDS011;40266;52.434;17.056;2023-05-07T03:53:58;17.50;;;9.10;;
54368;SDS011;40266;52.434;17.056;2023-05-07T03:56:42;22.10;;;11.30;;
54368;SDS011;40266;52.434;17.056;2023-05-07T03:59:25;20.00;;;9.80;;
54368;SDS011;40266;52.434;17.056;2023-05-07T04:02:08;19.60;;;10.40;;
54368;SDS011;40266;52.434;17.056;2023-05-07T04:04:51;21.00;;;9.40;;
54368;SDS011;40266;52.434;17.056;2023-05-07T04:07:35;20.00;;;10.40;;
54368;SDS011;40266;52.434;17.056;2023-05-07T04:10:18;21.90;;;10.80;;
54368;SDS011;40266;52.434;17.056;2023-05-07T04:13:01;22.90;;;10.70;;
54368;SDS011;40266;52.434;17.056;2023-05-07T04:15:44;21.50;;;10.50;;
54368;SDS011;40266;52.434;17.056;2023-05-07T04:18:29;21.60;;;10.20;;
54368;SDS011;40266;52.434;17.056;2023-05-07T04:21:13;19.10;;;10.50;;
54368;SDS011;40266;52.434;17.056;2023-05-07T04:23:58;21.40;;;10.90;;
54368;SDS011;40266;52.434;17.056;2023-05-07T04:26:41;22.20;;;11.20;;
54368;SDS011;40266;52.434;17.056;2023-05-07T04:29:25;21.50;;;11.60;;
54368;SDS011;40266;52.434;17.056;2023-05-07T04:32:09;21.20;;;11.00;;
54368;SDS011;40266;52.434;17.056;2023-05-07T04:34:53;21.00;;;11.90;;
54368;SDS011;40266;52.434;17.056;2023-05-07T04:37:37;27.70;;;13.00;;
54368;SDS011;40266;52.434;17.056;2023-05-07T04:40:21;24.90;;;11.20;;
54368;SDS011;40266;52.434;17.056;2023-05-07T04:43:04;20.90;;;11.80;;
54368;SDS011;40266;52.434;17.056;2023-05-07T04:45:50;20.10;;;10.10;;
54368;SDS011;40266;52.434;17.056;2023-05-07T04:48:35;17.70;;;9.50;;
54368;SDS011;40266;52.434;17.056;2023-05-07T04:51:20;18.80;;;9.20;;
54368;SDS011;40266;52.434;17.056;2023-05-07T04:54:04;17.60;;;9.80;;
54368;SDS011;40266;52.434;17.056;2023-05-07T04:56:47;17.80;;;8.60;;
54368;SDS011;40266;52.434;17.056;2023-05-07T04:59:30;16.70;;;8.30;;
54368;SDS011;40266;52.434;17.056;2023-05-07T05:02:14;21.30;;;9.00;;
54368;SDS011;40266;52.434;17.056;2023-05-07T05:05:03;16.10;;;8.10;;
54368;SDS011;40266;52.434;17.056;2023-05-07T05:07:46;17.20;;;9.80;;
54368;SDS011;40266;52.434;17.056;2023-05-07T05:10:30;15.30;;;8.20;;
54368;SDS011;40266;52.434;17.056;2023-05-07T05:13:13;13.70;;;7.30;;
54368;SDS011;40266;52.434;17.056;2023-05-07T05:15:56;17.70;;;7.70;;
54368;SDS011;40266;52.434;17.056;2023-05-07T05:18:40;12.70;;;6.50;;
54368;SDS011;40266;52.434;17.056;2023-05-07T05:21:24;11.40;;;6.50;;
54368;SDS011;40266;52.434;17.056;2023-05-07T05:24:10;13.10;;;6.50;;
54368;SDS011;40266;52.434;17.056;2023-05-07T05:26:54;15.90;;;6.70;;
54368;SDS011;40266;52.434;17.056;2023-05-07T05:29:37;11.50;;;6.20;;
54368;SDS011;40266;52.434;17.056;2023-05-07T05:32:20;10.10;;;5.30;;
54368;SDS011;40266;52.434;17.056;2023-05-07T05:35:05;8.20;;;5.10;;
54368;SDS011;40266;52.434;17.056;2023-05-07T05:37:49;9.70;;;4.90;;
54368;SDS011;40266;52.434;17.056;2023-05-07T05:40:32;8.00;;;4.50;;
54368;SDS011;40266;52.434;17.056;2023-05-07T05:43:16;8.50;;;5.00;;
54368;SDS011;40266;52.434;17.056;2023-05-07T05:46:01;6.00;;;3.90;;
54368;SDS011;40266;52.434;17.056;2023-05-07T05:48:45;8.60;;;4.80;;
54368;SDS011;40266;52.434;17.056;2023-05-07T05:51:28;9.10;;;4.50;;
54368;SDS011;40266;52.434;17.056;2023-05-07T05:54:11;6.60;;;4.20;;
54368;SDS011;40266;52.434;17.056;2023-05-07T05:56:54;7.40;;;3.90;;
54368;SDS011;40266;52.434;17.056;2023-05-07T05:59:38;6.70;;;3.70;;
54368;SDS011;40266;52.434;17.056;2023-05-07T06:02:21;5.00;;;3.40;;
54368;SDS011;40266;52.434;17.056;2023-05-07T06:05:04;6.70;;;3.20;;
54368;SDS011;40266;52.434;17.056;2023-05-07T06:07:48;6.60;;;3.40;;
54368;SDS011;40266;52.434;17.056;2023-05-07T06:10:32;5.80;;;3.00;;
54368;SDS011;40266;52.434;17.056;2023-05-07T06:13:15;4.80;;;3.20;;
54368;SDS011;40266;52.434;17.056;2023-05-07T06:15:58;7.30;;;2.90;;
54368;SDS011;40266;52.434;17.056;2023-05-07T06:18:42;5.00;;;3.20;;
54368;SDS011;40266;52.434;17.056;2023-05-07T06:21:25;5.90;;;3.30;;
54368;SDS011;40266;52.434;17.056;2023-05-07T06:24:09;5.70;;;3.00;;
54368;SDS011;40266;52.434;17.056;2023-05-07T06:26:53;6.90;;;3.10;;
54368;SDS011;40266;52.434;17.056;2023-05-07T06:29:36;5.10;;;3.10;;
54368;SDS011;40266;52.434;17.056;2023-05-07T06:32:21;6.70;;;2.80;;
54368;SDS011;40266;52.434;17.056;2023-05-07T06:35:05;5.40;;;2.90;;
54368;SDS011;40266;52.434;17.056;2023-05-07T06:37:50;2.90;;;2.50;;
54368;SDS011;40266;52.434;17.056;2023-05-07T06:40:36;6.50;;;3.00;;
54368;SDS011;40266;52.434;17.056;2023-05-07T06:43:20;9.40;;;3.10;;
54368;SDS011;40266;52.434;17.056;2023-05-07T06:46:09;6.00;;;2.30;;
54368;SDS011;40266;52.434;17.056;2023-05-07T06:48:53;5.50;;;3.00;;
54368;SDS011;40266;52.434;17.056;2023-05-07T06:51:37;4.60;;;2.50;;
54368;SDS011;40266;52.434;17.056;2023-05-07T06:54:21;3.20;;;2.20;;
54368;SDS011;40266;52.434;17.056;2023-05-07T06:57:06;3.90;;;2.00;;
54368;SDS011;40266;52.434;17.056;2023-05-07T06:59:50;4.00;;;2.10;;
54368;SDS011;40266;52.434;17.056;2023-05-07T07:02:33;3.50;;;2.40;;
54368;SDS011;40266;52.434;17.056;2023-05-07T07:05:17;8.10;;;2.60;;
54368;SDS011;40266;52.434;17.056;2023-05-07T07:08:00;5.60;;;2.30;;
54368;SDS011;40266;52.434;17.056;2023-05-07T07:10:43;3.80;;;2.00;;
54368;SDS011;40266;52.434;17.056;2023-05-07T07:13:27;3.10;;;2.10;;
54368;SDS011;40266;52.434;17.056;2023-05-07T07:16:10;4.30;;;2.40;;
54368;SDS011;40266;52.434;17.056;2023-05-07T07:18:53;3.90;;;2.10;;
54368;SDS011;40266;52.434;17.056;2023-05-07T07:21:36;3.70;;;2.10;;
54368;SDS011;40266;52.434;17.056;2023-05-07T07:24:19;3.40;;;2.10;;
54368;SDS011;40266;52.434;17.056;2023-05-07T07:27:07;2.70;;;1.90;;
54368;SDS011;40266;52.434;17.056;2023-05-07T07:29:51;3.20;;;2.10;;
54368;SDS011;40266;52.434;17.056;2023-05-07T07:32:35;5.10;;;1.90;;
54368;SDS011;40266;52.434;17.056;2023-05-07T07:35:18;4.20;;;1.70;;
54368;SDS011;40266;52.434;17.056;2023-05-07T07:38:04;4.60;;;1.90;;
54368;SDS011;40266;52.434;17.056;2023-05-07T07:40:47;4.00;;;2.10;;
54368;SDS011;40266;52.434;17.056;2023-05-07T07:43:30;4.60;;;2.50;;
54368;SDS011;40266;52.434;17.056;2023-05-07T07:46:13;9.40;;;2.00;;
54368;SDS011;40266;52.434;17.056;2023-05-07T07:48:58;2.60;;;1.50;;
54368;SDS011;40266;52.434;17.056;2023-05-07T07:51:43;3.70;;;2.00;;
54368;SDS011;40266;52.434;17.056;2023-05-07T07:54:26;4.10;;;2.00;;
54368;SDS011;40266;52.434;17.056;2023-05-07T07:57:10;3.70;;;1.90;;
54368;SDS011;40266;52.434;17.056;2023-05-07T07:59:54;3.80;;;1.90;;
54368;SDS011;40266;52.434;17.056;2023-05-07T08:02:38;5.40;;;2.10;;
54368;SDS011;40266;52.434;17.056;2023-05-07T08:05:21;6.10;;;1.80;;
54368;SDS011;40266;52.434;17.056;2023-05-07T08:08:06;4.30;;;1.70;;
54368;SDS011;40266;52.434;17.056;2023-05-07T08:10:50;5.50;;;1.90;;
54368;SDS011;40266;52.434;17.056;2023-05-07T08:13:42;3.20;;;2.50;;
54368;SDS011;40266;52.434;17.056;2023-05-07T08:16:27;4.60;;;1.80;;
54368;SDS011;40266;52.434;17.056;2023-05-07T08:19:18;3.60;;;1.80;;
54368;SDS011;40266;52.434;17.056;2023-05-07T08:22:02;4.80;;;2.00;;
54368;SDS011;40266;52.434;17.056;2023-05-07T08:24:47;3.70;;;1.70;;
54368;SDS011;40266;52.434;17.056;2023-05-07T08:27:33;4.30;;;1.90;;
54368;SDS011;40266;52.434;17.056;2023-05-07T08:30:17;5.40;;;2.60;;
54368;SDS011;40266;52.434;17.056;2023-05-07T08:33:00;5.30;;;1.90;;
54368;SDS011;40266;52.434;17.056;2023-05-07T08:35:44;6.00;;;1.90;;
54368;SDS011;40266;52.434;17.056;2023-05-07T08:38:29;3.90;;;1.90;;
54368;SDS011;40266;52.434;17.056;2023-05-07T08:41:13;4.00;;;1.90;;
54368;SDS011;40266;52.434;17.056;2023-05-07T08:43:57;2.50;;;2.00;;
54368;SDS011;40266;52.434;17.056;2023-05-07T08:46:43;4.30;;;2.00;;
54368;SDS011;40266;52.434;17.056;2023-05-07T08:49:31;3.50;;;2.00;;
54368;SDS011;40266;52.434;17.056;2023-05-07T08:52:16;5.90;;;2.40;;
54368;SDS011;40266;52.434;17.056;2023-05-07T08:55:00;4.30;;;2.50;;
54368;SDS011;40266;52.434;17.056;2023-05-07T08:57:45;6.20;;;2.20;;
54368;SDS011;40266;52.434;17.056;2023-05-07T09:00:30;4.10;;;2.10;;
54368;SDS011;40266;52.434;17.056;2023-05-07T09:03:13;3.50;;;2.00;;
54368;SDS011;40266;52.434;17.056;2023-05-07T09:06:00;3.80;;;2.00;;
54368;SDS011;40266;52.434;17.056;2023-05-07T09:08:48;3.20;;;2.30;;
54368;SDS011;40266;52.434;17.056;2023-05-07T09:11:45;6.70;;;2.10;;
54368;SDS011;40266;52.434;17.056;2023-05-07T09:14:29;3.50;;;2.00;;
54368;SDS011;40266;52.434;17.056;2023-05-07T09:17:17;5.80;;;2.60;;
54368;SDS011;40266;52.434;17.056;2023-05-07T09:20:04;2.70;;;1.60;;
54368;SDS011;40266;52.434;17.056;2023-05-07T09:22:56;7.00;;;2.10;;
54368;SDS011;40266;52.434;17.056;2023-05-07T09:25:39;2.20;;;1.80;;
54368;SDS011;40266;52.434;17.056;2023-05-07T09:28:28;2.10;;;1.70;;
54368;SDS011;40266;52.434;17.056;2023-05-07T09:31:11;7.50;;;2.60;;
54368;SDS011;40266;52.434;17.056;2023-05-07T09:33:55;3.70;;;2.10;;
54368;SDS011;40266;52.434;17.056;2023-05-07T09:36:40;6.60;;;2.00;;
54368;SDS011;40266;52.434;17.056;2023-05-07T09:39:24;5.60;;;3.00;;
54368;SDS011;40266;52.434;17.056;2023-05-07T09:42:08;2.20;;;1.90;;
54368;SDS011;40266;52.434;17.056;2023-05-07T09:44:52;3.30;;;2.20;;
54368;SDS011;40266;52.434;17.056;2023-05-07T09:47:38;4.00;;;2.40;;
54368;SDS011;40266;52.434;17.056;2023-05-07T09:50:30;4.00;;;2.30;;
54368;SDS011;40266;52.434;17.056;2023-05-07T09:53:18;3.70;;;1.80;;
54368;SDS011;40266;52.434;17.056;2023-05-07T09:56:03;4.60;;;1.80;;
54368;SDS011;40266;52.434;17.056;2023-05-07T09:58:48;4.20;;;2.00;;
54368;SDS011;40266;52.434;17.056;2023-05-07T10:01:35;3.70;;;1.90;;
54368;SDS011;40266;52.434;17.056;2023-05-07T10:04:20;2.70;;;1.90;;
54368;SDS011;40266;52.434;17.056;2023-05-07T10:07:04;3.90;;;1.70;;
54368;SDS011;40266;52.434;17.056;2023-05-07T10:09:50;5.20;;;2.20;;
54368;SDS011;40266;52.434;17.056;2023-05-07T10:12:41;4.70;;;2.00;;
54368;SDS011;40266;52.434;17.056;2023-05-07T10:15:29;4.60;;;1.70;;
54368;SDS011;40266;52.434;17.056;2023-05-07T10:18:13;4.30;;;2.10;;
54368;SDS011;40266;52.434;17.056;2023-05-07T10:21:02;4.20;;;2.20;;
54368;SDS011;40266;52.434;17.056;2023-05-07T10:23:50;3.80;;;2.10;;
54368;SDS011;40266;52.434;17.056;2023-05-07T10:26:43;2.60;;;1.50;;
54368;SDS011;40266;52.434;17.056;2023-05-07T10:29:36;4.30;;;2.10;;
54368;SDS011;40266;52.434;17.056;2023-05-07T10:32:30;3.30;;;1.90;;
54368;SDS011;40266;52.434;17.056;2023-05-07T10:35:26;6.10;;;1.90;;
54368;SDS011;40266;52.434;17.056;2023-05-07T10:38:13;5.50;;;1.90;;
54368;SDS011;40266;52.434;17.056;2023-05-07T10:40:57;3.80;;;2.00;;
54368;SDS011;40266;52.434;17.056;2023-05-07T10:43:41;3.70;;;1.40;;
54368;SDS011;40266;52.434;17.056;2023-05-07T10:46:32;3.50;;;1.70;;
54368;SDS011;40266;52.434;17.056;2023-05-07T10:49:35;5.20;;;2.00;;
54368;SDS011;40266;52.434;17.056;2023-05-07T10:52:43;3.30;;;1.60;;
54368;SDS011;40266;52.434;17.056;2023-05-07T10:55:33;3.10;;;2.20;;
54368;SDS011;40266;52.434;17.056;2023-05-07T10:58:27;2.90;;;2.10;;
54368;SDS011;40266;52.434;17.056;2023-05-07T11:01:53;4.50;;;2.60;;
54368;SDS011;40266;52.434;17.056;2023-05-07T11:04:44;2.40;;;1.80;;
54368;SDS011;40266;52.434;17.056;2023-05-07T11:07:33;2.80;;;1.30;;
54368;SDS011;40266;52.434;17.056;2023-05-07T11:13:41;3.60;;;1.10;;
54368;SDS011;40266;52.434;17.056;2023-05-07T11:16:25;4.10;;;1.60;;
54368;SDS011;40266;52.434;17.056;2023-05-07T11:19:33;7.60;;;1.90;;
54368;SDS011;40266;52.434;17.056;2023-05-07T11:22:58;3.00;;;1.40;;
54368;SDS011;40266;52.434;17.056;2023-05-07T11:25:51;3.50;;;1.80;;
54368;SDS011;40266;52.434;17.056;2023-05-07T11:28:45;1.60;;;1.50;;
54368;SDS011;40266;52.434;17.056;2023-05-07T11:31:28;3.50;;;1.30;;
54368;SDS011;40266;52.434;17.056;2023-05-07T11:34:13;2.50;;;1.20;;
54368;SDS011;40266;52.434;17.056;2023-05-07T11:36:58;5.20;;;1.70;;
54368;SDS011;40266;52.434;17.056;2023-05-07T11:44:08;3.10;;;1.50;;
54368;SDS011;40266;52.434;17.056;2023-05-07T11:46:52;3.20;;;1.60;;
54368;SDS011;40266;52.434;17.056;2023-05-07T11:49:35;5.00;;;2.50;;
54368;SDS011;40266;52.434;17.056;2023-05-07T11:52:19;2.20;;;1.30;;
54368;SDS011;40266;52.434;17.056;2023-05-07T11:55:03;2.50;;;1.50;;
54368;SDS011;40266;52.434;17.056;2023-05-07T11:57:47;2.70;;;1.30;;
54368;SDS011;40266;52.434;17.056;2023-05-07T12:00:30;4.00;;;1.80;;
54368;SDS011;40266;52.434;17.056;2023-05-07T12:07:18;5.80;;;2.40;;
54368;SDS011;40266;52.434;17.056;2023-05-07T12:10:07;3.10;;;1.80;;
54368;SDS011;40266;52.434;17.056;2023-05-07T12:12:52;4.70;;;1.70;;
54368;SDS011;40266;52.434;17.056;2023-05-07T12:15:35;4.00;;;2.00;;
54368;SDS011;40266;52.434;17.056;2023-05-07T12:18:18;2.60;;;1.50;;
54368;SDS011;40266;52.434;17.056;2023-05-07T12:21:04;2.20;;;1.50;;
54368;SDS011;40266;52.434;17.056;2023-05-07T12:23:48;3.50;;;1.90;;
54368;SDS011;40266;52.434;17.056;2023-05-07T12:26:31;2.90;;;1.70;;
54368;SDS011;40266;52.434;17.056;2023-05-07T12:29:14;4.10;;;2.10;;
54368;SDS011;40266;52.434;17.056;2023-05-07T12:31:58;5.80;;;2.10;;
54368;SDS011;40266;52.434;17.056;2023-05-07T12:34:42;5.60;;;2.40;;
54368;SDS011;40266;52.434;17.056;2023-05-07T12:37:27;6.30;;;2.40;;
54368;SDS011;40266;52.434;17.056;2023-05-07T12:40:14;3.70;;;2.10;;
54368;SDS011;40266;52.434;17.056;2023-05-07T12:42:58;3.30;;;2.10;;
54368;SDS011;40266;52.434;17.056;2023-05-07T12:45:42;2.10;;;1.60;;
54368;SDS011;40266;52.434;17.056;2023-05-07T12:48:27;4.80;;;2.60;;
54368;SDS011;40266;52.434;17.056;2023-05-07T12:51:10;6.30;;;1.90;;
54368;SDS011;40266;52.434;17.056;2023-05-07T12:53:55;5.10;;;2.10;;
54368;SDS011;40266;52.434;17.056;2023-05-07T12:56:39;4.20;;;1.90;;
54368;SDS011;40266;52.434;17.056;2023-05-07T12:59:30;6.10;;;2.30;;
54368;SDS011;40266;52.434;17.056;2023-05-07T13:02:20;3.80;;;2.20;;
54368;SDS011;40266;52.434;17.056;2023-05-07T13:05:04;4.50;;;1.90;;
54368;SDS011;40266;52.434;17.056;2023-05-07T13:07:53;4.80;;;2.20;;
54368;SDS011;40266;52.434;17.056;2023-05-07T13:10:37;4.40;;;2.70;;
54368;SDS011;40266;52.434;17.056;2023-05-07T13:13:20;5.80;;;2.20;;
54368;SDS011;40266;52.434;17.056;2023-05-07T13:16:05;3.70;;;1.90;;
54368;SDS011;40266;52.434;17.056;2023-05-07T13:18:49;5.20;;;2.10;;
54368;SDS011;40266;52.434;17.056;2023-05-07T13:21:32;4.40;;;2.10;;
54368;SDS011;40266;52.434;17.056;2023-05-07T13:24:15;2.40;;;1.90;;
54368;SDS011;40266;52.434;17.056;2023-05-07T13:26:58;6.40;;;1.80;;
54368;SDS011;40266;52.434;17.056;2023-05-07T13:29:41;4.40;;;2.10;;
54368;SDS011;40266;52.434;17.056;2023-05-07T13:32:24;9.00;;;2.50;;
54368;SDS011;40266;52.434;17.056;2023-05-07T13:35:07;3.20;;;1.80;;
54368;SDS011;40266;52.434;17.056;2023-05-07T13:37:51;4.50;;;2.20;;
54368;SDS011;40266;52.434;17.056;2023-05-07T13:40:34;5.10;;;2.10;;
54368;SDS011;40266;52.434;17.056;2023-05-07T13:43:18;3.80;;;2.10;;
54368;SDS011;40266;52.434;17.056;2023-05-07T13:46:01;4.80;;;2.40;;
54368;SDS011;40266;52.434;17.056;2023-05-07T13:48:45;2.40;;;1.60;;
54368;SDS011;40266;52.434;17.056;2023-05-07T13:51:28;4.40;;;2.30;;
54368;SDS011;40266;52.434;17.056;2023-05-07T13:54:11;3.70;;;2.20;;
54368;SDS011;40266;52.434;17.056;2023-05-07T13:56:55;2.90;;;1.80;;
54368;SDS011;40266;52.434;17.056;2023-05-07T13:59:38;2.80;;;2.00;;
54368;SDS011;40266;52.434;17.056;2023-05-07T14:02:21;4.00;;;2.00;;
54368;SDS011;40266;52.434;17.056;2023-05-07T14:05:05;4.60;;;2.30;;
54368;SDS011;40266;52.434;17.056;2023-05-07T14:07:52;3.70;;;2.00;;
54368;SDS011;40266;52.434;17.056;2023-05-07T14:10:35;2.80;;;2.10;;
54368;SDS011;40266;52.434;17.056;2023-05-07T14:13:18;4.70;;;2.30;;
54368;SDS011;40266;52.434;17.056;2023-05-07T14:16:01;5.10;;;2.20;;
54368;SDS011;40266;52.434;17.056;2023-05-07T14:18:45;4.00;;;2.60;;
54368;SDS011;40266;52.434;17.056;2023-05-07T14:21:28;4.60;;;2.20;;
54368;SDS011;40266;52.434;17.056;2023-05-07T14:24:13;3.20;;;2.00;;
54368;SDS011;40266;52.434;17.056;2023-05-07T14:27:12;5.60;;;2.60;;
54368;SDS011;40266;52.434;17.056;2023-05-07T14:29:56;1.80;;;1.70;;
54368;SDS011;40266;52.434;17.056;2023-05-07T14:32:39;4.60;;;2.60;;
54368;SDS011;40266;52.434;17.056;2023-05-07T14:35:22;4.70;;;2.40;;
54368;SDS011;40266;52.434;17.056;2023-05-07T14:38:05;9.00;;;2.20;;
54368;SDS011;40266;52.434;17.056;2023-05-07T14:40:48;4.40;;;2.30;;
54368;SDS011;40266;52.434;17.056;2023-05-07T14:43:31;4.40;;;2.20;;
54368;SDS011;40266;52.434;17.056;2023-05-07T14:46:19;5.60;;;2.50;;
54368;SDS011;40266;52.434;17.056;2023-05-07T14:49:02;2.50;;;2.00;;
54368;SDS011;40266;52.434;17.056;2023-05-07T14:51:46;4.50;;;2.30;;
54368;SDS011;40266;52.434;17.056;2023-05-07T14:54:29;4.10;;;2.30;;
54368;SDS011;40266;52.434;17.056;2023-05-07T14:57:13;3.80;;;2.90;;
54368;SDS011;40266;52.434;17.056;2023-05-07T14:59:58;7.20;;;2.30;;
54368;SDS011;40266;52.434;17.056;2023-05-07T15:02:42;5.20;;;2.40;;
54368;SDS011;40266;52.434;17.056;2023-05-07T15:05:25;6.50;;;2.80;;
54368;SDS011;40266;52.434;17.056;2023-05-07T15:08:08;5.30;;;2.90;;
54368;SDS011;40266;52.434;17.056;2023-05-07T15:10:52;9.80;;;3.40;;
54368;SDS011;40266;52.434;17.056;2023-05-07T15:13:35;4.20;;;2.80;;
54368;SDS011;40266;52.434;17.056;2023-05-07T15:16:19;3.40;;;2.30;;
54368;SDS011;40266;52.434;17.056;2023-05-07T15:19:03;4.30;;;2.20;;
54368;SDS011;40266;52.434;17.056;2023-05-07T15:21:46;3.80;;;2.30;;
54368;SDS011;40266;52.434;17.056;2023-05-07T15:24:30;2.70;;;2.20;;
54368;SDS011;40266;52.434;17.056;2023-05-07T15:27:13;5.30;;;2.50;;
54368;SDS011;40266;52.434;17.056;2023-05-07T15:29:57;5.20;;;2.90;;
54368;SDS011;40266;52.434;17.056;2023-05-07T15:32:40;5.90;;;3.00;;
54368;SDS011;40266;52.434;17.056;2023-05-07T15:35:25;6.20;;;2.30;;
54368;SDS011;40266;52.434;17.056;2023-05-07T15:38:08;8.40;;;2.40;;
54368;SDS011;40266;52.434;17.056;2023-05-07T15:40:52;4.30;;;2.60;;
54368;SDS011;40266;52.434;17.056;2023-05-07T15:43:38;2.90;;;2.30;;
54368;SDS011;40266;52.434;17.056;2023-05-07T15:46:28;4.10;;;2.50;;
54368;SDS011;40266;52.434;17.056;2023-05-07T15:49:11;3.60;;;2.30;;
54368;SDS011;40266;52.434;17.056;2023-05-07T15:51:54;5.90;;;2.70;;
54368;SDS011;40266;52.434;17.056;2023-05-07T15:54:38;3.30;;;2.50;;
54368;SDS011;40266;52.434;17.056;2023-05-07T15:57:21;6.20;;;2.70;;
54368;SDS011;40266;52.434;17.056;2023-05-07T16:00:05;5.00;;;2.40;;
54368;SDS011;40266;52.434;17.056;2023-05-07T16:02:54;4.30;;;2.20;;
54368;SDS011;40266;52.434;17.056;2023-05-07T16:05:38;6.40;;;3.00;;
54368;SDS011;40266;52.434;17.056;2023-05-07T16:08:21;8.00;;;3.00;;
54368;SDS011;40266;52.434;17.056;2023-05-07T16:11:04;3.20;;;2.50;;
54368;SDS011;40266;52.434;17.056;2023-05-07T16:13:47;9.20;;;3.50;;
54368;SDS011;40266;52.434;17.056;2023-05-07T16:16:32;6.00;;;3.20;;
54368;SDS011;40266;52.434;17.056;2023-05-07T16:19:16;7.20;;;3.30;;
54368;SDS011;40266;52.434;17.056;2023-05-07T16:21:59;6.20;;;3.10;;
54368;SDS011;40266;52.434;17.056;2023-05-07T16:24:42;4.90;;;2.80;;